Time;durP1;ratioP1;P1;durP2;ratioP2;P2;SDS_P1;SDS_P2;PMS_P1;PMS_P2;Temp;Humidity;BMP_temperature;BMP_pressure;BME280_temperature;BME280_humidity;BME280_pressure;Samples;Min_cycle;Max_cycle;Signal;HPM_P1;HPM_P2
2024/04/04 00:02:07;;;;;;;10.63;4.32;;;8.10;99.90;;;;;;5015385;28;20044;-94
2024/04/04 00:04:32;;;;;;;9.85;5.07;;;8.10;99.90;;;;;;5015082;28;20096;-91
2024/04/04 00:06:58;;;;;;;9.75;4.80;;;8.10;99.90;;;;;;5015323;28;20030;-95
2024/04/04 00:09:23;;;;;;;8.55;5.45;;;8.10;99.90;;;;;;5015488;28;20041;-90
2024/04/04 00:11:51;;;;;;;6.85;4.68;;;8.10;99.90;;;;;;5015891;28;20430;-91
2024/04/04 00:14:17;;;;;;;8.50;4.93;;;8.10;99.90;;;;;;5016370;28;20045;-91
2024/04/04 00:16:43;;;;;;;8.25;4.45;;;8.10;99.90;;;;;;5026790;28;20109;-91
2024/04/04 00:19:09;;;;;;;11.98;5.30;;;8.10;99.90;;;;;;5030474;28;20026;-92
2024/04/04 00:21:35;;;;;;;7.30;4.03;;;8.10;99.90;;;;;;5018548;28;20534;-92
2024/04/04 00:24:02;;;;;;;9.77;4.75;;;8.10;99.90;;;;;;5017083;28;20030;-92
2024/04/04 00:26:27;;;;;;;6.22;3.97;;;8.10;99.90;;;;;;5020105;28;20041;-90
2024/04/04 00:28:54;;;;;;;7.63;4.97;;;8.20;99.90;;;;;;5019357;28;20022;-91
2024/04/04 00:31:19;;;;;;;6.93;4.30;;;8.20;99.90;;;;;;5016543;28;20021;-91
2024/04/04 00:33:45;;;;;;;5.32;3.28;;;8.20;99.90;;;;;;5020270;28;20045;-91
2024/04/04 00:36:11;;;;;;;8.95;5.13;;;8.20;99.90;;;;;;5026338;28;20026;-92
2024/04/04 00:38:37;;;;;;;10.55;5.68;;;8.20;99.90;;;;;;5026461;28;20080;-91
2024/04/04 00:41:03;;;;;;;7.10;4.60;;;8.20;99.90;;;;;;5024269;28;20022;-90
2024/04/04 00:43:29;;;;;;;9.45;4.80;;;8.20;99.90;;;;;;5021840;28;20096;-92
2024/04/04 00:45:56;;;;;;;7.88;3.92;;;8.20;99.90;;;;;;5017420;28;20041;-91
2024/04/04 00:48:23;;;;;;;5.68;3.67;;;8.20;99.90;;;;;;5016363;28;20026;-91
2024/04/04 00:50:49;;;;;;;10.82;4.32;;;8.20;99.90;;;;;;5016149;28;20018;-91
2024/04/04 00:53:15;;;;;;;8.23;4.05;;;8.20;99.90;;;;;;5015827;28;20105;-91
2024/04/04 00:55:41;;;;;;;8.30;4.40;;;8.20;99.90;;;;;;5015487;28;20080;-91
2024/04/04 00:58:07;;;;;;;8.82;4.38;;;8.20;99.90;;;;;;5015199;28;20113;-91
2024/04/04 01:00:33;;;;;;;5.88;4.30;;;8.20;99.90;;;;;;5015148;28;20026;-92
2024/04/04 01:02:59;;;;;;;7.45;3.92;;;8.20;99.90;;;;;;5015412;28;20605;-91
2024/04/04 01:05:24;;;;;;;7.40;4.35;;;8.10;99.90;;;;;;5014209;28;20026;-92
2024/04/04 01:07:50;;;;;;;6.45;4.50;;;8.20;99.90;;;;;;5013813;28;20021;-94
2024/04/04 01:10:17;;;;;;;8.85;4.70;;;8.20;99.90;;;;;;5012558;28;20026;-91
2024/04/04 01:12:43;;;;;;;7.10;4.43;;;8.10;99.90;;;;;;5013052;28;20026;-93
2024/04/04 01:15:08;;;;;;;6.65;4.65;;;8.20;99.90;;;;;;5012940;28;20029;-94
2024/04/04 01:17:35;;;;;;;5.18;4.28;;;8.10;99.90;;;;;;5013023;28;20400;-92
2024/04/04 01:20:01;;;;;;;6.88;4.68;;;8.20;99.90;;;;;;5012127;28;20022;-94
2024/04/04 01:22:26;;;;;;;13.73;4.72;;;8.10;99.90;;;;;;4996634;28;20033;-93
2024/04/04 01:24:52;;;;;;;9.35;5.22;;;8.10;99.90;;;;;;4995152;28;20866;-96
2024/04/04 01:27:18;;;;;;;12.18;4.90;;;8.10;99.90;;;;;;4998112;28;20017;-93
2024/04/04 01:29:44;;;;;;;10.93;5.30;;;8.10;99.90;;;;;;5015889;28;20044;-93
2024/04/04 01:32:10;;;;;;;10.45;4.97;;;8.10;99.90;;;;;;4998189;28;20024;-94
2024/04/04 01:34:36;;;;;;;11.68;5.60;;;8.10;99.90;;;;;;4998629;28;20030;-96
2024/04/04 01:37:01;;;;;;;8.50;5.43;;;8.10;99.90;;;;;;5000327;28;20487;-94
2024/04/04 01:39:27;;;;;;;9.95;5.53;;;8.10;99.90;;;;;;5008793;28;20030;-94
2024/04/04 01:41:56;;;;;;;9.25;5.63;;;8.10;99.90;;;;;;5001387;28;20506;-95
2024/04/04 01:44:22;;;;;;;9.27;5.43;;;8.10;99.90;;;;;;4998176;28;20018;-95
2024/04/04 01:46:48;;;;;;;9.05;4.72;;;8.10;99.90;;;;;;4997836;28;20040;-94
2024/04/04 01:49:15;;;;;;;10.95;5.32;;;8.10;99.90;;;;;;5006833;28;20117;-93
2024/04/04 01:51:41;;;;;;;5.80;5.10;;;8.10;99.90;;;;;;5008268;28;20032;-93
2024/04/04 01:54:08;;;;;;;12.73;5.80;;;8.10;99.90;;;;;;4998201;28;20518;-94
2024/04/04 01:56:33;;;;;;;9.63;5.15;;;8.10;99.90;;;;;;4998579;28;20026;-94
2024/04/04 01:58:59;;;;;;;9.32;6.03;;;8.10;99.90;;;;;;4999060;28;20563;-95
2024/04/04 02:01:25;;;;;;;9.77;6.10;;;8.10;99.90;;;;;;4999868;28;20045;-93
2024/04/04 02:03:50;;;;;;;10.25;6.15;;;8.10;99.90;;;;;;5000176;28;20625;-93
2024/04/04 02:06:16;;;;;;;9.70;5.25;;;8.10;99.90;;;;;;5010660;28;20033;-94
2024/04/04 02:08:42;;;;;;;8.52;5.47;;;8.10;99.90;;;;;;5029639;28;20077;-93
2024/04/04 02:11:08;;;;;;;9.52;5.40;;;8.00;99.90;;;;;;5012472;28;20030;-93
2024/04/04 02:13:33;;;;;;;12.68;5.35;;;8.00;99.90;;;;;;5016987;28;20093;-93
2024/04/04 02:15:59;;;;;;;11.77;6.05;;;8.00;99.90;;;;;;5014551;28;20076;-93
2024/04/04 02:18:25;;;;;;;9.57;6.32;;;7.90;99.90;;;;;;5008601;28;20022;-92
2024/04/04 02:20:51;;;;;;;11.35;6.70;;;7.90;99.90;;;;;;5011633;28;20041;-92
2024/04/04 02:23:16;;;;;;;11.13;6.60;;;7.90;99.90;;;;;;5020801;28;20112;-93
2024/04/04 02:25:42;;;;;;;10.70;7.05;;;7.90;99.90;;;;;;5020174;28;20549;-94
2024/04/04 02:28:09;;;;;;;17.13;6.97;;;7.90;99.90;;;;;;5018794;28;20053;-91
2024/04/04 02:30:39;;;;;;;11.82;7.07;;;7.90;99.90;;;;;;5017909;28;20032;-92
2024/04/04 02:33:05;;;;;;;12.90;7.30;;;7.90;99.90;;;;;;5017888;28;20026;-90
2024/04/04 02:35:31;;;;;;;10.98;6.45;;;7.90;99.90;;;;;;5017797;28;20026;-92
2024/04/04 02:37:57;;;;;;;16.13;7.03;;;7.90;99.90;;;;;;5017106;28;20028;-91
2024/04/04 02:40:23;;;;;;;9.45;6.95;;;7.90;99.90;;;;;;5016995;28;20574;-94
2024/04/04 02:42:49;;;;;;;8.98;4.53;;;7.80;99.90;;;;;;5017328;28;20041;-92
2024/04/04 02:45:15;;;;;;;17.77;7.32;;;7.80;99.90;;;;;;5017351;28;20487;-91
2024/04/04 02:47:40;;;;;;;11.30;6.03;;;7.80;99.90;;;;;;5017423;28;20022;-91
2024/04/04 02:50:07;;;;;;;12.98;6.53;;;7.80;99.90;;;;;;5017985;28;20026;-93
2024/04/04 02:52:33;;;;;;;7.20;4.97;;;7.80;99.90;;;;;;5014848;28;20021;-92
2024/04/04 02:55:00;;;;;;;7.85;5.00;;;7.80;99.90;;;;;;5017520;28;20525;-92
2024/04/04 02:57:25;;;;;;;6.95;3.47;;;7.80;99.90;;;;;;5017390;28;20036;-92
2024/04/04 02:59:51;;;;;;;5.32;2.58;;;7.80;99.90;;;;;;5016948;28;20116;-91
2024/04/04 03:02:17;;;;;;;5.88;2.30;;;7.80;99.90;;;;;;5018336;28;20497;-91
2024/04/04 03:04:42;;;;;;;3.13;2.45;;;7.70;99.90;;;;;;5020305;28;20068;-91
2024/04/04 03:07:08;;;;;;;2.15;1.80;;;7.70;99.90;;;;;;5035181;28;20030;-92
2024/04/04 03:09:34;;;;;;;5.70;1.75;;;7.70;99.90;;;;;;5035719;28;20021;-91
2024/04/04 03:11:59;;;;;;;2.67;1.40;;;7.70;99.90;;;;;;5031687;28;20068;-91
2024/04/04 03:14:25;;;;;;;2.65;1.45;;;7.60;99.90;;;;;;5020877;28;20061;-92
2024/04/04 03:16:51;;;;;;;2.60;1.58;;;7.60;99.90;;;;;;5024134;28;20018;-92
2024/04/04 03:19:17;;;;;;;4.35;2.05;;;7.60;99.90;;;;;;5025408;28;20033;-91
2024/04/04 03:21:44;;;;;;;3.47;1.90;;;7.60;99.90;;;;;;5027468;28;20045;-91
2024/04/04 03:24:09;;;;;;;2.20;1.58;;;7.60;99.90;;;;;;5027413;28;20030;-90
2024/04/04 03:26:35;;;;;;;5.07;2.13;;;7.60;99.90;;;;;;5026281;28;20051;-93
2024/04/04 03:29:01;;;;;;;3.88;1.77;;;7.70;99.90;;;;;;5024786;28;20056;-91
2024/04/04 03:31:27;;;;;;;2.83;1.88;;;7.70;99.90;;;;;;5025208;28;20038;-90
2024/04/04 03:33:53;;;;;;;4.28;1.85;;;7.70;99.90;;;;;;5022366;28;20099;-91
2024/04/04 03:36:20;;;;;;;3.92;1.73;;;7.70;99.90;;;;;;5022982;28;20017;-91
2024/04/04 03:38:45;;;;;;;2.42;1.55;;;7.70;99.90;;;;;;5021108;28;20029;-91
2024/04/04 03:41:11;;;;;;;4.07;1.80;;;7.70;99.90;;;;;;5020494;28;20027;-92
2024/04/04 03:43:37;;;;;;;5.88;1.83;;;7.70;99.90;;;;;;5027570;28;20088;-92
2024/04/04 03:46:06;;;;;;;2.78;1.60;;;7.60;99.90;;;;;;5020580;28;20529;-90
2024/04/04 03:48:34;;;;;;;3.00;1.65;;;7.60;99.90;;;;;;5020261;28;20434;-92
2024/04/04 03:51:00;;;;;;;4.95;1.80;;;7.60;99.90;;;;;;5019923;28;20120;-91
2024/04/04 03:53:26;;;;;;;4.30;1.60;;;7.50;99.90;;;;;;5017891;28;20044;-91
2024/04/04 03:55:52;;;;;;;3.00;1.60;;;7.50;99.90;;;;;;5019750;28;20029;-92
2024/04/04 03:58:18;;;;;;;1.65;1.48;;;7.50;99.90;;;;;;5019330;28;20030;-93
2024/04/04 04:00:44;;;;;;;1.63;1.25;;;7.50;99.90;;;;;;5019337;28;20612;-91
2024/04/04 04:03:10;;;;;;;4.00;1.70;;;7.50;99.90;;;;;;5018756;28;20021;-92
2024/04/04 04:05:36;;;;;;;2.28;1.40;;;7.50;99.90;;;;;;5018733;28;20025;-92
2024/04/04 04:08:02;;;;;;;3.80;1.67;;;7.50;99.90;;;;;;5018902;28;20032;-91
2024/04/04 04:10:30;;;;;;;1.75;1.40;;;7.40;99.90;;;;;;5019083;28;21168;-91
2024/04/04 04:12:55;;;;;;;2.00;1.50;;;7.50;99.90;;;;;;5018327;28;20139;-93
2024/04/04 04:15:21;;;;;;;2.10;1.65;;;7.40;99.90;;;;;;5018351;28;20491;-91
2024/04/04 04:17:47;;;;;;;3.35;1.75;;;7.40;99.90;;;;;;5018853;28;20582;-92
2024/04/04 04:22:57;;;;;;;2.33;1.30;;;7.40;99.90;;;;;;5014292;28;20044;-92
2024/04/04 04:25:23;;;;;;;6.53;2.10;;;7.40;99.90;;;;;;4998914;28;20121;-91
2024/04/04 04:27:49;;;;;;;2.42;1.52;;;7.40;99.90;;;;;;4998602;28;20466;-91
2024/04/04 04:30:14;;;;;;;4.00;1.65;;;7.40;99.90;;;;;;4999844;28;20025;-92
2024/04/04 04:32:40;;;;;;;4.40;1.80;;;7.40;99.90;;;;;;5016562;28;20022;-91
2024/04/04 04:35:07;;;;;;;6.68;2.17;;;7.30;99.90;;;;;;5015940;28;20153;-92
2024/04/04 04:37:33;;;;;;;3.13;2.00;;;7.30;99.90;;;;;;4998168;28;20030;-92
2024/04/04 04:39:59;;;;;;;1.92;1.70;;;7.30;99.90;;;;;;4998286;28;20559;-93
2024/04/04 04:42:25;;;;;;;4.93;1.77;;;7.30;99.90;;;;;;4998519;28;20026;-93
2024/04/04 04:44:50;;;;;;;4.30;2.10;;;7.30;99.90;;;;;;4998149;28;20044;-92
2024/04/04 04:47:16;;;;;;;4.85;2.47;;;7.20;99.90;;;;;;4998247;28;20038;-92
2024/04/04 04:49:42;;;;;;;6.70;2.22;;;7.30;99.90;;;;;;4998181;28;20022;-91
2024/04/04 04:52:08;;;;;;;1.90;1.70;;;7.20;99.90;;;;;;4998164;28;20124;-92
2024/04/04 04:54:34;;;;;;;5.13;2.65;;;7.20;99.90;;;;;;4994363;28;20068;-92
2024/04/04 04:57:01;;;;;;;3.92;2.70;;;7.20;99.90;;;;;;4998124;28;20029;-93
2024/04/04 04:59:27;;;;;;;8.43;2.50;;;7.20;99.90;;;;;;4998025;28;20048;-94
2024/04/04 05:01:53;;;;;;;4.85;2.70;;;7.20;99.90;;;;;;4998381;28;20525;-93
2024/04/04 05:04:20;;;;;;;6.45;2.83;;;7.10;99.90;;;;;;4998411;28;20057;-92
2024/04/04 05:06:46;;;;;;;5.47;3.45;;;7.10;99.90;;;;;;4997630;28;20088;-92
2024/04/04 05:09:13;;;;;;;6.97;3.67;;;7.10;99.90;;;;;;4997246;28;20097;-91
2024/04/04 05:11:39;;;;;;;5.70;3.25;;;7.00;99.90;;;;;;4997909;28;20022;-93
2024/04/04 05:14:05;;;;;;;5.13;3.35;;;7.10;99.90;;;;;;4998701;28;20486;-93
2024/04/04 05:16:30;;;;;;;6.18;3.90;;;7.10;99.90;;;;;;4997728;28;20026;-92
2024/04/04 05:18:56;;;;;;;7.32;3.80;;;7.00;99.90;;;;;;4997680;28;20038;-93
2024/04/04 05:21:22;;;;;;;7.88;3.42;;;7.00;99.90;;;;;;4997709;28;20104;-92
2024/04/04 05:23:47;;;;;;;4.28;3.42;;;7.00;99.90;;;;;;4997602;28;20029;-94
2024/04/04 05:26:13;;;;;;;6.18;4.25;;;7.00;99.90;;;;;;5002924;28;20384;-93
2024/04/04 05:28:41;;;;;;;6.47;4.15;;;7.00;99.90;;;;;;4997392;28;20480;-91
2024/04/04 05:31:06;;;;;;;6.82;4.25;;;7.00;99.90;;;;;;4997398;28;20029;-92
2024/04/04 05:33:33;;;;;;;10.10;4.55;;;7.00;99.90;;;;;;4997196;28;20112;-93
2024/04/04 05:35:58;;;;;;;6.50;4.35;;;7.00;99.90;;;;;;4997340;28;20038;-92
2024/04/04 05:38:24;;;;;;;7.22;3.78;;;7.00;99.90;;;;;;4996986;28;20026;-93
2024/04/04 05:40:50;;;;;;;7.28;4.22;;;7.00;99.90;;;;;;4997189;28;20073;-92
2024/04/04 05:43:15;;;;;;;4.78;4.03;;;7.00;99.90;;;;;;4997243;28;20018;-91
2024/04/04 05:45:43;;;;;;;7.55;4.30;;;7.00;99.90;;;;;;4997994;28;20030;-92
2024/04/04 05:48:08;;;;;;;6.55;3.80;;;7.00;99.90;;;;;;4997903;28;20029;-93
2024/04/04 05:50:36;;;;;;;4.82;3.83;;;7.00;99.90;;;;;;4992489;28;20030;-92
2024/04/04 05:53:02;;;;;;;6.03;4.07;;;7.00;99.90;;;;;;5001640;28;20029;-92
2024/04/04 05:55:29;;;;;;;8.63;4.05;;;7.00;99.90;;;;;;5003631;28;20046;-92
2024/04/04 05:57:55;;;;;;;8.68;4.03;;;7.00;99.90;;;;;;5004745;28;20052;-91
2024/04/04 06:00:21;;;;;;;4.72;3.50;;;7.00;99.90;;;;;;5005937;28;20018;-92
2024/04/04 06:02:47;;;;;;;6.85;3.72;;;7.00;99.90;;;;;;5003110;28;20032;-92
2024/04/04 06:05:13;;;;;;;6.00;4.10;;;6.90;99.90;;;;;;5006742;28;20045;-92
2024/04/04 06:07:39;;;;;;;7.20;4.05;;;6.90;99.90;;;;;;5001117;28;20113;-92
2024/04/04 06:10:05;;;;;;;5.65;3.63;;;7.00;99.90;;;;;;4997813;28;20511;-92
2024/04/04 06:12:31;;;;;;;5.60;4.05;;;7.00;99.90;;;;;;4998659;28;20030;-93
2024/04/04 06:14:57;;;;;;;4.80;3.70;;;7.00;99.90;;;;;;4996979;28;20045;-92
2024/04/04 06:17:24;;;;;;;5.95;3.72;;;7.00;99.90;;;;;;5022013;28;20356;-95
2024/04/04 06:19:50;;;;;;;6.55;3.50;;;7.00;99.90;;;;;;5007542;28;20029;-93
2024/04/04 06:22:16;;;;;;;8.15;3.50;;;7.00;99.90;;;;;;5004116;28;20045;-92
2024/04/04 06:24:43;;;;;;;5.38;3.13;;;7.00;99.90;;;;;;5002874;28;20041;-92
2024/04/04 06:27:09;;;;;;;4.15;3.33;;;7.00;99.90;;;;;;5000704;28;20036;-93
2024/04/04 06:29:35;;;;;;;5.10;3.42;;;7.00;99.90;;;;;;4998153;28;20018;-92
2024/04/04 06:32:04;;;;;;;7.13;3.08;;;7.00;99.90;;;;;;4997595;28;20049;-92
2024/04/04 06:34:33;;;;;;;6.00;3.88;;;7.00;99.90;;;;;;4997638;28;20372;-91
2024/04/04 06:36:59;;;;;;;6.23;4.10;;;7.10;99.90;;;;;;4997142;28;20058;-91
2024/04/04 06:39:25;;;;;;;10.93;6.22;;;7.10;99.90;;;;;;4997462;28;20018;-94
2024/04/04 06:41:52;;;;;;;6.57;4.88;;;7.10;99.90;;;;;;4997155;28;20490;-93
2024/04/04 06:44:17;;;;;;;7.63;4.80;;;7.10;99.90;;;;;;4996500;28;20538;-92
2024/04/04 06:46:43;;;;;;;7.15;4.57;;;7.10;99.90;;;;;;4996073;28;20038;-92
2024/04/04 06:49:09;;;;;;;7.43;4.57;;;7.10;99.90;;;;;;4996796;28;20026;-92
2024/04/04 06:51:35;;;;;;;6.68;4.60;;;7.10;99.90;;;;;;4996137;28;20479;-93
2024/04/04 06:54:01;;;;;;;6.55;3.63;;;7.10;99.90;;;;;;4996196;28;20037;-93
2024/04/04 06:56:27;;;;;;;7.40;4.38;;;7.10;99.90;;;;;;4996079;28;20049;-92
2024/04/04 06:58:53;;;;;;;6.43;4.40;;;7.10;99.90;;;;;;4996398;28;20113;-92
2024/04/04 07:01:20;;;;;;;8.65;4.82;;;7.20;99.90;;;;;;4996292;28;20045;-91
2024/04/04 07:03:46;;;;;;;10.65;4.80;;;7.20;99.90;;;;;;4996229;28;20097;-93
2024/04/04 07:06:12;;;;;;;7.50;4.68;;;7.20;99.90;;;;;;5014620;28;20117;-93
2024/04/04 07:08:38;;;;;;;6.78;4.47;;;7.30;99.90;;;;;;4993125;28;20133;-93
2024/04/04 07:11:05;;;;;;;7.32;4.75;;;7.30;99.90;;;;;;4994761;28;20025;-92
2024/04/04 07:13:35;;;;;;;8.48;4.60;;;7.30;99.90;;;;;;4996322;28;20025;-92
2024/04/04 07:16:06;;;;;;;6.05;3.95;;;7.30;99.90;;;;;;4996451;28;20135;-93
2024/04/04 07:18:32;;;;;;;6.80;4.70;;;7.30;99.90;;;;;;5014984;28;20116;-93
2024/04/04 07:20:58;;;;;;;4.00;2.90;;;7.30;99.90;;;;;;5007403;28;20199;-92
2024/04/04 07:23:24;;;;;;;4.40;2.55;;;7.40;99.90;;;;;;5020793;28;20032;-91
2024/04/04 07:25:51;;;;;;;3.70;2.42;;;7.40;99.90;;;;;;5019475;28;20029;-93
2024/04/04 07:28:17;;;;;;;3.92;2.80;;;7.50;99.90;;;;;;5022340;28;20021;-92
2024/04/04 07:30:43;;;;;;;2.80;2.55;;;7.50;99.90;;;;;;5035642;28;20026;-93
2024/04/04 07:33:08;;;;;;;3.08;2.13;;;7.60;99.90;;;;;;5028424;28;20612;-94
2024/04/04 07:35:34;;;;;;;4.05;2.63;;;7.60;99.90;;;;;;5025186;28;20036;-93
2024/04/04 07:38:02;;;;;;;3.08;2.33;;;7.70;99.90;;;;;;5019730;28;20028;-93
2024/04/04 07:40:28;;;;;;;3.03;2.17;;;7.80;99.90;;;;;;5014711;28;20125;-92
2024/04/04 07:42:55;;;;;;;3.30;2.40;;;7.80;99.90;;;;;;5020164;28;20486;-95
2024/04/04 07:45:21;;;;;;;3.58;2.22;;;7.80;99.90;;;;;;5019419;28;20043;-93
2024/04/04 07:47:46;;;;;;;3.00;2.40;;;7.90;99.90;;;;;;5019487;28;20448;-93
2024/04/04 07:50:14;;;;;;;3.42;2.40;;;7.90;99.90;;;;;;5018784;28;20408;-94
2024/04/04 07:52:40;;;;;;;2.33;2.10;;;7.80;99.90;;;;;;5019697;28;20056;-93
2024/04/04 07:55:09;;;;;;;3.42;2.47;;;7.90;99.90;;;;;;5017192;28;20029;-94
2024/04/04 07:57:35;;;;;;;3.70;2.40;;;7.90;99.90;;;;;;5020396;28;20391;-94
2024/04/04 08:00:00;;;;;;;4.93;2.67;;;7.90;99.90;;;;;;5030270;28;20036;-95
2024/04/04 08:02:29;;;;;;;2.92;2.35;;;7.90;99.90;;;;;;5025488;28;20021;-94
2024/04/04 08:04:55;;;;;;;3.08;2.05;;;8.00;99.90;;;;;;5027474;28;20132;-93
2024/04/04 08:07:22;;;;;;;3.05;1.80;;;8.00;99.90;;;;;;5038049;28;20120;-93
2024/04/04 08:09:48;;;;;;;2.78;1.42;;;8.10;99.90;;;;;;5019031;28;20029;-94
2024/04/04 08:12:17;;;;;;;3.78;1.75;;;8.20;99.90;;;;;;5036779;28;20033;-93
2024/04/04 08:14:46;;;;;;;3.20;1.90;;;8.30;99.90;;;;;;5036829;28;20026;-94
2024/04/04 08:17:11;;;;;;;6.00;2.60;;;8.30;99.90;;;;;;5038565;28;20026;-94
2024/04/04 08:19:37;;;;;;;4.80;3.00;;;8.40;99.90;;;;;;5039386;28;20065;-94
2024/04/04 08:22:07;;;;;;;4.85;2.90;;;8.40;99.90;;;;;;5036483;28;20077;-94
2024/04/04 08:24:35;;;;;;;5.05;2.85;;;8.50;99.90;;;;;;5035623;28;20490;-93
2024/04/04 08:27:01;;;;;;;4.80;2.78;;;8.60;99.90;;;;;;5023035;28;20050;-94
2024/04/04 08:29:27;;;;;;;6.95;2.78;;;8.60;99.90;;;;;;5019133;28;20048;-95
2024/04/04 08:31:53;;;;;;;4.18;3.00;;;8.70;99.90;;;;;;5018783;28;20060;-95
2024/04/04 08:34:20;;;;;;;4.28;2.90;;;8.70;99.90;;;;;;5019017;28;20483;-95
2024/04/04 08:36:46;;;;;;;6.72;4.07;;;8.80;99.90;;;;;;5019402;28;20497;-95
2024/04/04 08:39:12;;;;;;;12.20;5.10;;;8.80;99.90;;;;;;5024288;28;20089;-96
2024/04/04 08:41:40;;;;;;;7.43;4.25;;;8.80;99.90;;;;;;5029940;28;20025;-95
2024/04/04 08:44:08;;;;;;;9.77;5.65;;;8.80;99.90;;;;;;5034033;28;20030;-92
2024/04/04 08:46:38;;;;;;;7.90;5.47;;;8.80;99.90;;;;;;5035449;28;20010;-95
2024/04/04 08:49:04;;;;;;;9.15;5.70;;;8.80;99.90;;;;;;4995881;28;20050;-93
2024/04/04 08:51:30;;;;;;;5.63;4.18;;;8.70;99.90;;;;;;5017655;28;20411;-93
2024/04/04 08:53:59;;;;;;;7.05;4.43;;;8.70;99.90;;;;;;5022195;28;20032;-94
2024/04/04 08:56:39;;;;;;;7.75;4.03;;;8.70;99.90;;;;;;5026056;28;20018;-94
2024/04/04 08:59:05;;;;;;;6.10;4.32;;;8.70;99.90;;;;;;5024999;28;20030;-93
2024/04/04 09:01:30;;;;;;;8.13;4.40;;;8.70;99.90;;;;;;5027256;28;20021;-95
2024/04/04 09:03:56;;;;;;;8.73;4.13;;;8.70;99.90;;;;;;5025484;28;20030;-95
2024/04/04 09:06:24;;;;;;;5.63;3.90;;;8.80;99.90;;;;;;5023213;28;20483;-93
2024/04/04 09:08:55;;;;;;;5.47;3.95;;;8.80;99.90;;;;;;5023450;28;20057;-93
2024/04/04 09:11:25;;;;;;;6.55;4.40;;;8.90;99.90;;;;;;5022101;28;20034;-93
2024/04/04 09:14:11;;;;;;;6.53;3.97;;;9.00;99.90;;;;;;5020430;28;20530;-93
2024/04/04 09:16:38;;;;;;;7.03;4.53;;;9.00;99.90;;;;;;5017049;28;20034;-95
2024/04/04 09:19:23;;;;;;;7.13;4.60;;;9.00;99.90;;;;;;5017212;28;20033;-93
2024/04/04 09:21:49;;;;;;;8.77;4.97;;;9.00;99.90;;;;;;5026653;28;20105;-93
2024/04/04 09:24:23;;;;;;;7.63;4.88;;;9.00;99.90;;;;;;5037930;28;20038;-93
2024/04/04 09:26:49;;;;;;;7.38;4.40;;;9.00;99.90;;;;;;5023332;28;20037;-94
2024/04/04 09:29:17;;;;;;;9.13;4.70;;;9.00;99.90;;;;;;5016271;28;20034;-94
2024/04/04 09:31:44;;;;;;;8.23;4.90;;;9.00;99.90;;;;;;5017145;28;20022;-94
2024/04/04 09:34:13;;;;;;;7.38;4.70;;;9.10;99.90;;;;;;5018657;28;20113;-94
2024/04/04 09:36:39;;;;;;;6.95;4.20;;;9.00;99.90;;;;;;5017120;28;20030;-93
2024/04/04 09:39:19;;;;;;;6.38;4.20;;;9.00;99.90;;;;;;5021388;28;20111;-94
2024/04/04 09:41:47;;;;;;;8.07;4.87;;;9.10;99.90;;;;;;5019874;28;20475;-95
2024/04/04 09:44:13;;;;;;;6.68;4.00;;;9.10;99.90;;;;;;5019771;28;20033;-93
2024/04/04 09:46:49;;;;;;;8.70;4.57;;;9.10;99.90;;;;;;5021520;28;20068;-95
2024/04/04 09:49:17;;;;;;;7.53;4.63;;;9.10;99.90;;;;;;5025775;28;20018;-92
2024/04/04 09:51:45;;;;;;;8.52;4.80;;;9.10;99.90;;;;;;5028836;28;20089;-93
2024/04/04 09:54:12;;;;;;;6.68;4.28;;;9.10;99.90;;;;;;5031109;28;20045;-94
2024/04/04 09:56:40;;;;;;;8.05;4.95;;;9.10;99.90;;;;;;5034046;28;20026;-92
2024/04/04 09:59:07;;;;;;;8.00;5.32;;;9.10;99.90;;;;;;5030152;28;20026;-94
2024/04/04 10:01:35;;;;;;;16.40;7.53;;;9.20;99.90;;;;;;5027356;28;20188;-94
2024/04/04 10:04:02;;;;;;;9.48;6.07;;;9.20;99.90;;;;;;5024772;28;20021;-95
2024/04/04 10:06:36;;;;;;;15.82;6.25;;;9.30;99.90;;;;;;5026006;28;20037;-95
2024/04/04 10:09:24;;;;;;;10.88;5.88;;;9.30;99.90;;;;;;5020869;28;20025;-94
2024/04/04 10:11:51;;;;;;;12.90;6.70;;;9.30;99.90;;;;;;5010092;28;20041;-92
2024/04/04 10:14:21;;;;;;;13.80;7.32;;;9.30;99.90;;;;;;5020791;28;20071;-95
2024/04/04 10:16:54;;;;;;;13.35;7.80;;;9.40;99.90;;;;;;5027230;28;20101;-93
2024/04/04 10:19:27;;;;;;;13.43;7.45;;;9.40;99.90;;;;;;5014780;28;20026;-95
2024/04/04 10:21:53;;;;;;;11.98;6.95;;;9.50;99.90;;;;;;5022647;28;20080;-94
2024/04/04 10:24:31;;;;;;;12.90;7.93;;;9.50;99.90;;;;;;5033144;28;20030;-94
2024/04/04 10:27:00;;;;;;;12.95;7.35;;;9.60;99.90;;;;;;5026873;28;20037;-95
2024/04/04 10:29:36;;;;;;;13.50;7.18;;;9.60;99.90;;;;;;5022719;28;20545;-95
2024/04/04 10:32:05;;;;;;;15.52;7.65;;;9.60;99.90;;;;;;5015163;28;20033;-94
2024/04/04 10:34:31;;;;;;;14.70;6.88;;;9.60;99.90;;;;;;5027090;28;20038;-94
2024/04/04 10:36:57;;;;;;;11.93;6.07;;;9.50;99.90;;;;;;5019188;28;20033;-92
2024/04/04 10:39:22;;;;;;;10.57;5.55;;;9.50;99.90;;;;;;5012723;28;20498;-93
2024/04/04 10:41:54;;;;;;;10.50;6.32;;;9.50;99.90;;;;;;5013671;28;20091;-91
2024/04/04 10:44:22;;;;;;;9.35;5.95;;;9.50;99.90;;;;;;5012877;28;20187;-93
2024/04/04 10:46:48;;;;;;;11.75;6.47;;;9.50;99.90;;;;;;5012301;28;20028;-94
2024/04/04 10:49:16;;;;;;;11.02;5.63;;;9.60;99.90;;;;;;5012001;28;20069;-93
2024/04/04 10:51:51;;;;;;;8.20;5.50;;;9.60;99.90;;;;;;5013118;28;20613;-94
2024/04/04 10:54:18;;;;;;;10.40;5.45;;;9.50;99.90;;;;;;5016148;28;20022;-93
2024/04/04 10:56:47;;;;;;;9.00;5.53;;;9.50;99.90;;;;;;5016266;28;20038;-92
2024/04/04 10:59:15;;;;;;;8.77;5.22;;;9.50;99.90;;;;;;5015131;28;20033;-92
2024/04/04 11:01:44;;;;;;;9.50;5.60;;;9.50;99.90;;;;;;5015493;28;20018;-94
2024/04/04 11:04:11;;;;;;;9.23;6.05;;;9.40;99.90;;;;;;5015979;28;20097;-93
2024/04/04 11:06:39;;;;;;;10.85;6.07;;;9.40;99.90;;;;;;4998068;28;20070;-94
2024/04/04 11:09:10;;;;;;;9.75;5.53;;;9.40;99.90;;;;;;4995922;28;20523;-94
2024/04/04 11:11:40;;;;;;;12.25;6.35;;;9.40;99.90;;;;;;4997558;28;20113;-93
2024/04/04 11:14:05;;;;;;;10.95;6.47;;;9.40;99.90;;;;;;4998050;28;20118;-93
2024/04/04 11:16:32;;;;;;;11.27;6.47;;;9.40;99.90;;;;;;4998076;28;20054;-92
2024/04/04 11:18:58;;;;;;;9.10;5.93;;;9.40;99.90;;;;;;4998373;28;20037;-92
2024/04/04 11:21:24;;;;;;;11.13;6.30;;;9.50;99.90;;;;;;4999507;28;20046;-93
2024/04/04 11:23:50;;;;;;;8.68;5.50;;;9.40;99.90;;;;;;5008247;28;20065;-93
2024/04/04 11:26:16;;;;;;;11.50;6.40;;;9.40;99.90;;;;;;5013333;28;20034;-91
2024/04/04 11:28:42;;;;;;;9.40;6.60;;;9.40;99.90;;;;;;5013016;28;20022;-92
2024/04/04 11:31:08;;;;;;;10.52;6.63;;;9.40;99.90;;;;;;5012431;28;20036;-92
2024/04/04 11:33:33;;;;;;;12.40;7.00;;;9.40;99.90;;;;;;5002974;28;20027;-92
2024/04/04 11:36:00;;;;;;;10.50;7.07;;;9.40;99.90;;;;;;4998879;28;20022;-92
2024/04/04 11:38:26;;;;;;;12.98;7.07;;;9.40;99.90;;;;;;4997514;28;20041;-92
2024/04/04 11:40:52;;;;;;;14.00;7.22;;;9.50;99.90;;;;;;4996906;28;20085;-93
2024/04/04 11:43:18;;;;;;;11.15;6.90;;;9.50;99.90;;;;;;4997385;28;20121;-92
2024/04/04 11:45:43;;;;;;;15.82;8.32;;;9.60;99.90;;;;;;4997409;28;20023;-93
2024/04/04 11:48:09;;;;;;;12.35;7.78;;;9.70;99.90;;;;;;4998017;28;20026;-91
2024/04/04 11:50:37;;;;;;;11.93;6.93;;;9.70;99.90;;;;;;5000924;28;20026;-92
2024/04/04 11:53:03;;;;;;;12.38;7.93;;;9.70;99.90;;;;;;5003372;28;20061;-90
2024/04/04 11:55:29;;;;;;;12.32;8.13;;;9.70;99.90;;;;;;5004148;28;20038;-91
2024/04/04 11:57:56;;;;;;;12.82;8.52;;;9.70;99.90;;;;;;5002778;28;20512;-92
2024/04/04 12:00:23;;;;;;;11.18;8.00;;;9.70;99.90;;;;;;5000843;28;20031;-93
2024/04/04 12:02:50;;;;;;;14.90;9.48;;;9.70;99.90;;;;;;5003141;28;20037;-90
2024/04/04 12:05:16;;;;;;;15.15;9.52;;;9.70;99.90;;;;;;5008059;28;20062;-92
2024/04/04 12:07:43;;;;;;;15.90;9.98;;;9.60;99.90;;;;;;5018398;28;20262;-92
2024/04/04 12:10:12;;;;;;;18.00;10.98;;;9.70;99.90;;;;;;5010647;28;20026;-92
2024/04/04 12:12:39;;;;;;;14.85;9.52;;;9.70;99.90;;;;;;5016314;28;20037;-91
2024/04/04 12:15:07;;;;;;;17.15;11.50;;;9.70;99.90;;;;;;5012727;28;20021;-90
2024/04/04 12:17:36;;;;;;;17.10;10.77;;;9.70;99.90;;;;;;5015596;28;20129;-92
2024/04/04 12:20:09;;;;;;;16.38;11.05;;;9.70;99.90;;;;;;5015978;28;20036;-92
2024/04/04 12:22:38;;;;;;;15.82;10.73;;;9.70;99.90;;;;;;5000524;28;20133;-91
2024/04/04 12:25:04;;;;;;;19.95;12.23;;;9.70;99.90;;;;;;5017265;28;20041;-91
2024/04/04 12:27:31;;;;;;;19.38;11.32;;;9.80;99.90;;;;;;4999412;28;20471;-93
2024/04/04 12:30:05;;;;;;;17.77;11.73;;;9.80;99.90;;;;;;4998670;28;20026;-93
2024/04/04 12:32:31;;;;;;;16.77;10.27;;;9.90;99.90;;;;;;4999488;28;20088;-92
2024/04/04 12:34:56;;;;;;;16.90;11.63;;;9.90;99.90;;;;;;4999195;28;20021;-92
2024/04/04 12:37:22;;;;;;;19.95;11.27;;;9.90;99.90;;;;;;4998789;28;20033;-92
2024/04/04 12:39:48;;;;;;;16.15;9.75;;;9.90;99.90;;;;;;4998942;28;20124;-90
2024/04/04 12:42:14;;;;;;;14.35;9.43;;;10.00;99.90;;;;;;4998295;28;20053;-89
2024/04/04 12:44:47;;;;;;;13.57;9.13;;;10.00;99.90;;;;;;4998422;28;20018;-90
2024/04/04 12:47:13;;;;;;;13.90;8.75;;;10.10;99.90;;;;;;4998298;28;20810;-90
2024/04/04 12:49:40;;;;;;;14.20;8.80;;;10.10;99.90;;;;;;5013934;28;20030;-92
2024/04/04 12:52:06;;;;;;;9.90;7.13;;;10.20;99.90;;;;;;4999659;28;20076;-91
2024/04/04 12:54:31;;;;;;;11.68;7.03;;;10.20;99.90;;;;;;4997641;28;20010;-92